createdAt,value
2018-03-23T00:01:08.395Z,11.80
2018-03-23T00:03:36.755Z,12.50
2018-03-23T00:06:05.135Z,12.33
2018-03-23T00:08:33.500Z,13.03
2018-03-23T00:11:01.846Z,12.00
2018-03-23T00:13:30.219Z,13.80
2018-03-23T00:15:58.551Z,10.17
2018-03-23T00:18:26.928Z,11.03
2018-03-23T00:20:55.288Z,10.30
2018-03-23T00:23:23.643Z,9.23
2018-03-23T00:25:52.762Z,9.50
2018-03-23T00:28:21.115Z,11.50
2018-03-23T00:30:50.248Z,9.27
2018-03-23T00:33:18.620Z,8.87
2018-03-23T00:35:46.986Z,8.40
2018-03-23T00:38:15.150Z,7.47
2018-03-23T00:40:44.265Z,8.90
2018-03-23T00:43:12.652Z,9.63
2018-03-23T00:45:41.191Z,8.57
2018-03-23T00:48:10.327Z,8.50
2018-03-23T00:50:38.714Z,9.87
2018-03-23T00:53:07.074Z,9.67
2018-03-23T00:55:35.414Z,8.20
2018-03-23T00:58:03.863Z,10.20
2018-03-23T01:00:32.222Z,6.80
2018-03-23T01:03:00.569Z,8.10
2018-03-23T01:05:28.931Z,8.90
2018-03-23T01:07:57.750Z,7.90
2018-03-23T01:10:26.103Z,8.30
2018-03-23T01:12:55.226Z,9.60
2018-03-23T01:15:23.635Z,10.90
2018-03-23T01:17:52.049Z,9.30
2018-03-23T01:20:20.511Z,10.50
2018-03-23T01:22:48.917Z,9.33
2018-03-23T01:25:17.401Z,12.10
2018-03-23T01:27:46.523Z,11.47
2018-03-23T01:30:14.881Z,14.53
2018-03-23T01:32:43.253Z,14.80
2018-03-23T01:35:11.457Z,13.97
2018-03-23T01:37:39.938Z,13.10
2018-03-23T01:40:08.082Z,16.07
2018-03-23T01:42:37.227Z,13.30
2018-03-23T01:45:05.245Z,17.00
2018-03-23T01:47:35.092Z,15.67
2018-03-23T01:50:02.874Z,17.23
2018-03-23T01:52:31.259Z,17.70
2018-03-23T01:54:59.601Z,19.53
2018-03-23T01:57:28.016Z,15.70
2018-03-23T01:59:56.373Z,16.40
2018-03-23T02:02:24.725Z,19.13
2018-03-23T02:04:53.869Z,14.90
2018-03-23T02:07:22.319Z,15.87
2018-03-23T02:09:50.710Z,17.60
2018-03-23T02:12:19.411Z,15.27
2018-03-23T02:14:47.776Z,13.40
2018-03-23T02:17:16.120Z,13.47
2018-03-23T02:19:44.492Z,14.40
2018-03-23T02:22:12.828Z,15.40
2018-03-23T02:24:41.255Z,13.50
2018-03-23T02:27:09.603Z,14.47
2018-03-23T02:29:38.554Z,13.57
2018-03-23T02:32:06.905Z,13.77
2018-03-23T02:34:35.293Z,13.50
2018-03-23T02:37:04.592Z,13.83
2018-03-23T02:39:32.953Z,14.20
2018-03-23T02:42:02.252Z,16.17
2018-03-23T02:44:31.597Z,13.13
2018-03-23T02:46:59.982Z,15.80
2018-03-23T02:49:28.490Z,13.50
2018-03-23T02:51:57.733Z,13.50
2018-03-23T02:54:26.071Z,13.67
2018-03-23T02:56:55.190Z,15.40
2018-03-23T02:59:23.582Z,16.77
2018-03-23T03:01:51.999Z,12.00
2018-03-23T03:04:20.450Z,13.50
2018-03-23T03:06:49.172Z,13.63
2018-03-23T03:09:17.511Z,13.00
2018-03-23T03:11:45.873Z,13.60
2018-03-23T03:14:14.270Z,13.07
2018-03-23T03:16:42.742Z,12.80
2018-03-23T03:19:11.083Z,14.20
2018-03-23T03:21:40.229Z,15.00
2018-03-23T03:24:08.571Z,13.17
2018-03-23T03:26:36.937Z,15.80
2018-03-23T03:29:06.042Z,14.37
2018-03-23T03:31:34.418Z,14.80
2018-03-23T03:34:03.568Z,13.73
2018-03-23T03:39:22.519Z,16.90
2018-03-23T03:41:50.867Z,17.97
2018-03-23T03:44:19.995Z,17.33
2018-03-23T03:46:48.339Z,19.50
2018-03-23T03:49:17.462Z,16.77
2018-03-23T03:51:45.804Z,18.50
2018-03-23T03:54:14.951Z,17.10
2018-03-23T03:56:43.283Z,17.43
2018-03-23T03:59:12.430Z,14.73
2018-03-23T04:01:40.801Z,13.00
2018-03-23T04:04:09.179Z,17.67
2018-03-23T04:06:37.564Z,14.77
2018-03-23T04:09:05.248Z,17.40
2018-03-23T04:11:33.611Z,16.63
2018-03-23T04:14:01.958Z,14.53
2018-03-23T04:16:30.308Z,16.73
2018-03-23T04:18:59.423Z,16.93
2018-03-23T04:21:27.788Z,14.90
2018-03-23T04:23:56.904Z,15.93
2018-03-23T04:26:25.248Z,16.50
2018-03-23T04:28:54.380Z,10.30
2018-03-23T04:31:22.727Z,15.13
2018-03-23T04:33:51.851Z,14.90
2018-03-23T04:36:20.207Z,14.43
2018-03-23T04:38:49.327Z,14.60
2018-03-23T04:41:17.883Z,15.13
2018-03-23T04:43:47.002Z,16.47
2018-03-23T04:46:15.360Z,14.40
2018-03-23T04:48:43.704Z,15.10
2018-03-23T04:51:12.075Z,16.47
2018-03-23T04:53:40.429Z,15.87
2018-03-23T04:56:08.778Z,15.67
2018-03-23T04:58:37.130Z,12.70
2018-03-23T05:01:06.264Z,15.47
2018-03-23T05:03:34.607Z,14.33
2018-03-23T05:06:03.737Z,18.73
2018-03-23T05:08:32.100Z,14.30
2018-03-23T05:11:00.450Z,13.57
2018-03-23T05:13:29.570Z,15.20
2018-03-23T05:15:57.912Z,16.07
2018-03-23T05:18:26.275Z,11.77
2018-03-23T05:20:54.282Z,14.30
2018-03-23T05:23:23.584Z,10.57
2018-03-23T05:25:52.707Z,15.00
2018-03-23T05:28:21.074Z,12.97
2018-03-23T05:30:49.427Z,14.27
2018-03-23T05:33:18.550Z,13.40
2018-03-23T05:35:46.920Z,12.60
2018-03-23T05:38:15.286Z,13.80
2018-03-23T05:40:44.448Z,13.57
2018-03-23T05:43:12.973Z,13.93
2018-03-23T05:45:41.328Z,11.77
2018-03-23T05:48:10.436Z,12.20
2018-03-23T05:50:39.640Z,12.60
2018-03-23T05:53:08.023Z,13.73
2018-03-23T05:55:36.395Z,13.93
2018-03-23T05:58:06.247Z,11.97
2018-03-23T06:00:34.633Z,11.90
2018-03-23T06:03:03.075Z,12.23
2018-03-23T06:05:31.439Z,12.53
2018-03-23T06:08:00.562Z,12.93
2018-03-23T06:10:28.912Z,11.90
2018-03-23T06:12:58.080Z,13.10
2018-03-23T06:15:26.428Z,12.77
2018-03-23T06:17:54.791Z,13.07
2018-03-23T06:20:22.942Z,12.97
2018-03-23T06:22:51.145Z,12.30
2018-03-23T06:25:20.423Z,12.67
2018-03-23T06:27:48.777Z,11.67
2018-03-23T06:30:17.904Z,11.20
2018-03-23T06:32:46.348Z,11.73
2018-03-23T06:35:14.701Z,11.30
2018-03-23T06:37:43.076Z,12.47
2018-03-23T06:40:11.435Z,9.13
2018-03-23T06:42:39.864Z,9.30
2018-03-23T06:45:08.274Z,10.53
2018-03-23T06:47:36.615Z,11.30
2018-03-23T06:50:05.744Z,11.43
2018-03-23T06:52:34.115Z,12.30
2018-03-23T06:55:02.447Z,13.23
2018-03-23T06:57:30.807Z,12.57
2018-03-23T06:59:59.152Z,9.57
2018-03-23T07:02:27.517Z,9.37
2018-03-23T07:04:56.633Z,10.00
2018-03-23T07:07:25.008Z,10.80
2018-03-23T07:09:53.347Z,11.00
2018-03-23T07:12:21.691Z,9.33
2018-03-23T07:14:50.067Z,6.13
2018-03-23T07:17:18.420Z,9.63
2018-03-23T07:19:46.803Z,10.80
2018-03-23T07:22:15.432Z,10.60
2018-03-23T07:24:44.311Z,8.80
2018-03-23T07:27:12.668Z,10.33
2018-03-23T07:29:40.868Z,11.27
2018-03-23T07:32:09.212Z,8.83
2018-03-23T07:34:37.593Z,9.10
2018-03-23T07:37:05.608Z,11.57
2018-03-23T07:39:33.943Z,10.20
2018-03-23T07:42:02.433Z,11.07
2018-03-23T07:44:31.715Z,9.00
2018-03-23T07:47:00.145Z,7.93
2018-03-23T07:49:29.260Z,4.00
2018-03-23T07:51:58.065Z,9.83
2018-03-23T07:54:26.405Z,10.50
2018-03-23T07:56:54.749Z,11.17
2018-03-23T07:59:23.112Z,10.43
2018-03-23T08:01:51.493Z,9.10
2018-03-23T08:04:19.890Z,9.00
2018-03-23T08:06:48.290Z,8.80
2018-03-23T08:09:16.790Z,8.30
2018-03-23T08:11:45.910Z,9.17
2018-03-23T08:14:14.268Z,8.93
2018-03-23T08:16:43.396Z,9.63
2018-03-23T08:19:11.790Z,6.63
2018-03-23T08:21:40.135Z,5.87
2018-03-23T08:24:08.528Z,7.57
2018-03-23T08:26:36.883Z,10.60
2018-03-23T08:29:05.983Z,9.30
2018-03-23T08:31:35.096Z,5.10
2018-03-23T08:34:03.461Z,8.60
2018-03-23T08:36:32.072Z,10.77
2018-03-23T08:39:00.218Z,9.37
2018-03-23T08:41:28.839Z,8.13
2018-03-23T08:43:57.173Z,7.70
2018-03-23T08:46:25.593Z,4.93
2018-03-23T08:48:53.958Z,8.47
2018-03-23T08:51:22.302Z,11.27
2018-03-23T08:53:50.650Z,7.90
2018-03-23T08:56:18.991Z,9.83
2018-03-23T08:58:48.108Z,9.97
2018-03-23T09:01:16.460Z,11.97
2018-03-23T09:03:44.809Z,7.57
2018-03-23T09:06:13.160Z,8.67
2018-03-23T09:08:41.493Z,9.37
2018-03-23T09:11:09.848Z,8.27
2018-03-23T09:13:38.023Z,7.10
2018-03-23T09:16:06.400Z,11.60
2018-03-23T09:18:34.867Z,9.57
2018-03-23T09:21:03.992Z,8.97
2018-03-23T09:23:32.331Z,10.53
2018-03-23T09:26:01.447Z,7.13
2018-03-23T09:28:29.791Z,10.83
2018-03-23T09:30:58.139Z,7.50
2018-03-23T09:33:26.473Z,8.60
2018-03-23T09:35:54.941Z,8.23
2018-03-23T09:38:24.075Z,9.80
2018-03-23T09:40:52.435Z,9.87
2018-03-23T09:43:20.779Z,10.77
2018-03-23T09:45:49.975Z,10.00
2018-03-23T09:48:18.182Z,9.00
2018-03-23T09:50:46.676Z,8.97
2018-03-23T09:53:15.015Z,9.80
2018-03-23T09:55:44.120Z,10.20
2018-03-23T09:58:13.066Z,3.43
2018-03-23T10:00:42.294Z,7.87
2018-03-23T10:03:11.441Z,10.90
2018-03-23T10:05:39.772Z,5.87
2018-03-23T10:08:08.127Z,9.03
2018-03-23T10:10:36.488Z,8.10
2018-03-23T10:13:04.839Z,7.03
2018-03-23T10:15:33.211Z,7.10
2018-03-23T10:18:01.556Z,8.30
2018-03-23T10:20:29.919Z,8.40
2018-03-23T10:22:58.267Z,9.43
2018-03-23T10:25:26.692Z,7.07
2018-03-23T10:27:56.293Z,5.53
2018-03-23T10:30:24.665Z,4.27
2018-03-23T10:32:53.014Z,7.63
2018-03-23T10:35:21.379Z,8.50
2018-03-23T10:37:49.727Z,7.73
2018-03-23T10:40:18.089Z,6.40
2018-03-23T10:42:46.617Z,5.30
2018-03-23T10:45:14.967Z,3.37
2018-03-23T10:47:44.339Z,4.23
2018-03-23T10:50:13.824Z,5.77
2018-03-23T10:52:42.229Z,5.87
2018-03-23T10:55:12.649Z,5.77
2018-03-23T10:57:41.135Z,3.20
2018-03-23T11:00:10.259Z,5.30
2018-03-23T11:02:39.366Z,5.63
2018-03-23T11:05:07.731Z,5.33
2018-03-23T11:07:36.826Z,6.40
2018-03-23T11:10:05.683Z,5.07
2018-03-23T11:12:34.020Z,7.07
2018-03-23T11:15:02.376Z,7.03
2018-03-23T11:17:32.808Z,5.67
2018-03-23T11:20:01.179Z,5.00
2018-03-23T11:22:30.665Z,2.77
2018-03-23T11:24:59.791Z,3.93
2018-03-23T11:27:28.152Z,3.90
2018-03-23T11:29:57.259Z,4.13
2018-03-23T11:32:25.624Z,4.60
2018-03-23T11:34:54.736Z,4.93
2018-03-23T11:37:23.859Z,5.03
2018-03-23T11:39:52.234Z,4.60
2018-03-23T11:42:20.679Z,4.80
2018-03-23T11:44:49.054Z,2.50
2018-03-23T11:47:17.557Z,4.80
2018-03-23T11:49:45.721Z,4.73
2018-03-23T11:52:14.170Z,3.80
2018-03-23T11:54:43.320Z,1.50
2018-03-23T11:57:11.781Z,3.03
2018-03-23T11:59:40.187Z,4.00
2018-03-23T12:02:09.674Z,4.50
2018-03-23T12:04:39.037Z,3.00
2018-03-23T12:07:08.155Z,4.23
2018-03-23T12:09:36.496Z,2.50
2018-03-23T12:12:04.851Z,4.20
2018-03-23T12:14:32.869Z,4.53
2018-03-23T12:17:01.238Z,3.20
2018-03-23T12:19:30.339Z,4.30
2018-03-23T12:21:58.695Z,4.57
2018-03-23T12:24:27.127Z,4.33
2018-03-23T12:26:55.539Z,3.80
2018-03-23T12:29:23.924Z,7.27
2018-03-23T12:31:52.294Z,4.63
2018-03-23T12:34:20.665Z,3.67
2018-03-23T12:36:49.007Z,2.63
2018-03-23T12:39:17.359Z,5.90
2018-03-23T12:41:46.587Z,4.30
2018-03-23T12:44:14.938Z,7.50
2018-03-23T12:46:44.122Z,7.63
2018-03-23T12:49:13.257Z,5.83
2018-03-23T12:51:41.614Z,8.13
2018-03-23T12:54:10.732Z,8.23
2018-03-23T12:56:39.059Z,8.40
2018-03-23T12:59:07.403Z,5.20
2018-03-23T13:01:35.748Z,6.47
2018-03-23T13:04:03.832Z,6.60
2018-03-23T13:06:32.180Z,9.70
2018-03-23T13:09:01.291Z,6.47
2018-03-23T13:11:29.631Z,8.63
2018-03-23T13:13:58.000Z,8.10
2018-03-23T13:16:26.363Z,9.83
2018-03-23T13:18:54.717Z,7.90
2018-03-23T13:21:23.071Z,9.37
2018-03-23T13:23:51.409Z,11.57
2018-03-23T13:26:19.749Z,8.13
2018-03-23T13:28:48.108Z,7.60
2018-03-23T13:31:16.454Z,11.27
2018-03-23T13:33:44.795Z,9.27
2018-03-23T13:36:12.813Z,10.43
2018-03-23T13:38:41.943Z,10.60
2018-03-23T13:41:10.277Z,5.67
2018-03-23T13:43:38.646Z,11.13
2018-03-23T13:46:06.996Z,4.63
2018-03-23T13:48:35.364Z,5.90
2018-03-23T13:51:03.759Z,8.13
2018-03-23T13:53:32.134Z,8.83
2018-03-23T13:56:00.686Z,7.30
2018-03-23T13:58:34.483Z,5.47
2018-03-23T14:01:02.831Z,5.30
2018-03-23T14:03:31.171Z,8.27
2018-03-23T14:05:59.635Z,7.10
2018-03-23T14:08:27.783Z,5.20
2018-03-23T14:10:56.141Z,7.10
2018-03-23T14:13:24.475Z,6.63
2018-03-23T14:15:52.647Z,5.83
2018-03-23T14:18:20.976Z,4.67
2018-03-23T14:20:50.087Z,6.57
2018-03-23T14:23:18.461Z,6.53
2018-03-23T14:25:47.013Z,8.30
2018-03-23T14:28:15.364Z,8.10
2018-03-23T14:30:43.707Z,4.07
2018-03-23T14:33:12.053Z,4.87
2018-03-23T14:35:40.422Z,5.43
2018-03-23T14:38:08.765Z,5.20
2018-03-23T14:40:37.101Z,3.80
2018-03-23T14:43:06.221Z,9.53
2018-03-23T14:45:34.559Z,4.37
2018-03-23T14:48:03.672Z,4.40
2018-03-23T14:50:32.805Z,7.47
2018-03-23T14:53:01.196Z,3.80
2018-03-23T14:55:29.751Z,6.67
2018-03-23T14:57:58.092Z,6.40
2018-03-23T15:00:27.231Z,6.20
2018-03-23T15:02:55.571Z,5.10
2018-03-23T15:05:24.735Z,5.70
2018-03-23T15:07:53.219Z,4.50
2018-03-23T15:10:21.627Z,7.50
2018-03-23T15:12:50.723Z,4.03
2018-03-23T15:15:19.860Z,5.60
2018-03-23T15:17:48.206Z,5.57
2018-03-23T15:20:17.312Z,5.53
2018-03-23T15:22:46.501Z,5.50
2018-03-23T15:25:14.843Z,7.97
2018-03-23T15:27:43.296Z,6.40
2018-03-23T15:30:11.352Z,5.40
2018-03-23T15:32:41.030Z,6.30
2018-03-23T15:35:10.135Z,6.67
2018-03-23T15:37:38.485Z,5.50
2018-03-23T15:40:06.825Z,4.80
2018-03-23T15:42:35.013Z,7.47
2018-03-23T15:45:03.354Z,7.87
2018-03-23T15:47:31.711Z,6.00
2018-03-23T15:50:00.811Z,6.03
2018-03-23T15:52:29.194Z,5.97
2018-03-23T15:54:57.520Z,4.13
2018-03-23T15:57:25.875Z,5.70
2018-03-23T15:59:54.375Z,6.07
2018-03-23T16:02:22.737Z,5.03
2018-03-23T16:04:52.219Z,7.53
2018-03-23T16:07:20.591Z,6.10
2018-03-23T16:09:48.947Z,6.67
2018-03-23T16:12:18.048Z,2.57
2018-03-23T16:14:47.174Z,6.63
2018-03-23T16:17:15.555Z,6.70
2018-03-23T16:19:43.898Z,5.43
2018-03-23T16:22:13.040Z,4.83
2018-03-23T16:24:41.422Z,3.60
2018-03-23T16:27:09.784Z,6.03
2018-03-23T16:29:38.123Z,3.67
2018-03-23T16:32:07.256Z,5.07
2018-03-23T16:34:35.600Z,6.33
2018-03-23T16:37:04.384Z,3.57
2018-03-23T16:39:33.495Z,3.03
2018-03-23T16:42:01.860Z,5.80
2018-03-23T16:44:31.340Z,6.10
2018-03-23T16:46:59.910Z,4.00
2018-03-23T16:49:28.260Z,4.77
2018-03-23T16:51:56.836Z,6.60
2018-03-23T16:54:25.927Z,5.80
2018-03-23T16:56:54.307Z,4.60
2018-03-23T16:59:22.644Z,3.50
2018-03-23T17:01:51.748Z,5.60
2018-03-23T17:04:20.868Z,6.47
2018-03-23T17:06:49.268Z,6.67
2018-03-23T17:09:17.768Z,4.40
2018-03-23T17:11:47.284Z,3.93
2018-03-23T17:14:16.478Z,6.03
2018-03-23T17:16:44.924Z,3.53
2018-03-23T17:19:13.288Z,6.47
2018-03-23T17:21:41.631Z,4.73
2018-03-23T17:24:09.996Z,6.67
2018-03-23T17:26:38.329Z,6.30
2018-03-23T17:29:06.699Z,6.33
2018-03-23T17:31:34.951Z,3.80
2018-03-23T17:34:03.769Z,6.30
2018-03-23T17:36:32.103Z,4.80
2018-03-23T17:39:00.458Z,3.40
2018-03-23T17:41:28.796Z,7.37
2018-03-23T17:43:57.143Z,3.80
2018-03-23T17:46:26.239Z,3.33
2018-03-23T17:48:55.406Z,5.20
2018-03-23T17:51:23.916Z,6.73
2018-03-23T17:53:53.063Z,3.97
2018-03-23T17:56:21.391Z,2.60
2018-03-23T17:58:50.530Z,6.57
2018-03-23T18:01:18.916Z,4.93
2018-03-23T18:03:47.335Z,4.57
2018-03-23T18:06:15.716Z,6.83
2018-03-23T18:08:44.863Z,3.90
2018-03-23T18:11:13.204Z,4.03
2018-03-23T18:13:42.320Z,2.33
2018-03-23T18:16:11.823Z,4.57
2018-03-23T18:18:41.177Z,5.47
2018-03-23T18:21:10.667Z,3.80
2018-03-23T18:23:38.819Z,3.57
2018-03-23T18:26:07.214Z,3.13
2018-03-23T18:28:35.775Z,5.53
2018-03-23T18:31:03.949Z,4.03
2018-03-23T18:33:32.314Z,5.23
2018-03-23T18:36:00.660Z,5.07
2018-03-23T18:38:29.933Z,2.73
2018-03-23T18:40:58.297Z,5.17
2018-03-23T18:43:26.648Z,4.17
2018-03-23T18:45:54.986Z,2.27
2018-03-23T18:48:24.120Z,4.83
2018-03-23T18:50:53.402Z,5.90
2018-03-23T18:53:22.525Z,4.20
2018-03-23T18:55:50.872Z,2.90
2018-03-23T18:58:20.340Z,6.27
2018-03-23T19:00:48.707Z,1.73
2018-03-23T19:03:17.115Z,6.73
2018-03-23T19:05:45.472Z,3.50
2018-03-23T19:08:13.949Z,8.27
2018-03-23T19:10:43.204Z,7.57
2018-03-23T19:13:12.382Z,7.10
2018-03-23T19:15:41.555Z,7.73
2018-03-23T19:18:10.061Z,5.90
2018-03-23T19:20:38.424Z,5.97
2018-03-23T19:23:07.542Z,4.30
2018-03-23T19:25:36.717Z,5.47
2018-03-23T19:28:05.814Z,7.27
2018-03-23T19:30:34.958Z,9.07
2018-03-23T19:33:03.361Z,5.30
2018-03-23T19:35:33.231Z,7.90
2018-03-23T19:38:01.609Z,6.43
2018-03-23T19:40:29.950Z,3.90
2018-03-23T19:42:58.314Z,5.47
2018-03-23T19:45:26.697Z,7.20
2018-03-23T19:47:55.041Z,5.90
2018-03-23T19:50:23.375Z,6.60
2018-03-23T19:52:52.539Z,4.10
2018-03-23T19:55:20.923Z,9.10
2018-03-23T19:57:49.303Z,5.23
2018-03-23T20:00:17.652Z,3.93
2018-03-23T20:02:46.018Z,7.47
2018-03-23T20:05:15.136Z,3.93
2018-03-23T20:07:43.488Z,7.00
2018-03-23T20:10:11.849Z,8.13
2018-03-23T20:12:40.199Z,5.00
2018-03-23T20:15:08.759Z,6.03
2018-03-23T20:17:42.693Z,7.47
2018-03-23T20:20:17.400Z,7.13
2018-03-23T20:22:45.766Z,7.60
2018-03-23T20:25:14.298Z,6.30
2018-03-23T20:27:48.959Z,9.07
2018-03-23T20:30:17.315Z,9.10
2018-03-23T20:32:45.693Z,9.00
2018-03-23T20:35:14.055Z,8.50
2018-03-23T20:37:43.020Z,7.00
2018-03-23T20:40:11.561Z,5.20
2018-03-23T20:42:39.919Z,7.40
2018-03-23T20:45:08.295Z,7.03
2018-03-23T20:47:36.711Z,7.33
2018-03-23T20:50:05.183Z,8.87
2018-03-23T20:52:33.559Z,10.53
2018-03-23T20:55:02.064Z,7.70
2018-03-23T20:57:30.452Z,7.07
2018-03-23T20:59:58.852Z,8.63
2018-03-23T21:02:28.024Z,7.97
2018-03-23T21:04:56.403Z,9.37
2018-03-23T21:07:24.799Z,3.93
2018-03-23T21:09:53.956Z,3.37
2018-03-23T21:12:22.398Z,7.83
2018-03-23T21:14:50.805Z,8.50
2018-03-23T21:17:19.177Z,4.70
2018-03-23T21:19:51.762Z,5.17
2018-03-23T21:22:20.191Z,8.30
2018-03-23T21:24:49.321Z,1.27
2018-03-23T21:27:17.736Z,9.10
2018-03-23T21:29:46.100Z,7.37
2018-03-23T21:32:14.485Z,4.47
2018-03-23T21:34:42.824Z,7.80
2018-03-23T21:37:11.199Z,4.90
2018-03-23T21:39:39.548Z,5.80
2018-03-23T21:42:08.003Z,5.63
2018-03-23T21:44:36.387Z,6.60
2018-03-23T21:47:06.615Z,5.50
2018-03-23T21:49:35.017Z,1.97
2018-03-23T21:52:03.860Z,6.57
2018-03-23T21:54:32.278Z,5.60
2018-03-23T21:57:00.671Z,7.33
2018-03-23T21:59:33.074Z,3.10
2018-03-23T22:02:01.469Z,4.10
2018-03-23T22:04:29.836Z,6.87
2018-03-23T22:07:00.840Z,7.00
2018-03-23T22:09:29.310Z,8.83
2018-03-23T22:11:59.403Z,7.80
2018-03-23T22:14:27.963Z,7.20
2018-03-23T22:16:56.343Z,8.80
2018-03-23T22:19:24.731Z,5.10
2018-03-23T22:21:54.039Z,4.60
2018-03-23T22:24:22.307Z,7.27
2018-03-23T22:26:50.804Z,6.53
2018-03-23T22:29:19.184Z,4.80
2018-03-23T22:31:47.561Z,7.43
2018-03-23T22:34:15.974Z,6.40
2018-03-23T22:36:45.259Z,5.53
2018-03-23T22:39:16.736Z,6.90
2018-03-23T22:41:46.184Z,6.30
2018-03-23T22:44:16.330Z,7.57
2018-03-23T22:46:44.708Z,8.10
2018-03-23T22:49:13.067Z,8.47
2018-03-23T22:51:41.450Z,8.50
2018-03-23T22:54:09.603Z,8.43
2018-03-23T22:56:37.972Z,7.10
2018-03-23T22:59:06.457Z,7.27
2018-03-23T23:01:34.814Z,8.00
2018-03-23T23:04:04.253Z,7.70
2018-03-23T23:06:32.651Z,6.70
2018-03-23T23:09:01.763Z,7.40
2018-03-23T23:11:30.908Z,7.43
2018-03-23T23:13:59.238Z,8.00
2018-03-23T23:16:28.348Z,7.73
2018-03-23T23:18:56.911Z,7.00
2018-03-23T23:21:26.019Z,8.20
2018-03-23T23:23:55.139Z,6.90
2018-03-23T23:26:23.538Z,7.80
2018-03-23T23:28:51.967Z,7.53
2018-03-23T23:31:21.078Z,8.27
2018-03-23T23:33:49.442Z,8.40
2018-03-23T23:36:18.543Z,7.73
2018-03-23T23:38:46.900Z,8.27
2018-03-23T23:41:16.020Z,7.77
2018-03-23T23:43:44.361Z,7.73
2018-03-23T23:46:12.718Z,8.40
2018-03-23T23:48:41.815Z,7.43
2018-03-23T23:51:10.173Z,7.07
2018-03-23T23:53:38.511Z,7.13
2018-03-23T23:56:07.630Z,9.30
2018-03-23T23:58:35.971Z,7.60
